Terminal Aerodrome Forecast
Issued by NWS

Home | Current Version | Previous Version | Text Only | Print | Product List | Glossary On
Versions: 1 2 3 4 5 6 7 8 9 10 11 12 13 14 15
000
FTUS45 KREV 230500
TAFTRK
TAF
KTRK 230520Z 2306/2406 VRB03KT P6SM SCT040 SCT180
     FM231800 27008KT P6SM FEW070 BKN180
     FM240300 VRB03KT P6SM SCT080 BKN160
      AMD NOT SKED 2306/2312=

USA.gov is the U.S. government's official web portal to all federal, state and local government web resources and services.